createdAt,value
2023-04-11T00:00:55.094Z,0.60
2023-04-11T00:03:22.524Z,0.80
2023-04-11T00:05:49.522Z,0.80
2023-04-11T00:08:16.544Z,0.57
2023-04-11T00:10:44.962Z,0.63
2023-04-11T00:13:12.362Z,0.50
2023-04-11T00:15:39.419Z,0.60
2023-04-11T00:18:07.031Z,0.75
2023-04-11T00:20:33.931Z,0.60
2023-04-11T00:23:00.706Z,0.90
2023-04-11T00:25:27.646Z,0.60
2023-04-11T00:27:54.233Z,0.60
2023-04-11T00:30:20.960Z,0.82
2023-04-11T00:32:47.881Z,1.08
2023-04-11T00:35:14.615Z,0.65
2023-04-11T00:37:44.218Z,0.70
2023-04-11T00:40:16.120Z,0.80
2023-04-11T00:42:42.881Z,1.00
2023-04-11T00:45:09.916Z,0.50
2023-04-11T00:47:36.912Z,0.68
2023-04-11T00:50:03.957Z,0.77
2023-04-11T00:52:30.682Z,0.60
2023-04-11T00:54:57.968Z,0.77
2023-04-11T00:57:26.058Z,0.80
2023-04-11T00:59:53.170Z,0.73
2023-04-11T01:02:19.949Z,0.47
2023-04-11T01:04:47.015Z,0.68
2023-04-11T01:07:14.167Z,0.95
2023-04-11T01:09:41.693Z,0.88
2023-04-11T01:12:08.960Z,0.80
2023-04-11T01:14:35.533Z,0.77
2023-04-11T01:17:02.434Z,0.80
2023-04-11T01:19:29.859Z,1.15
2023-04-11T01:21:58.660Z,1.00
2023-04-11T01:24:25.474Z,0.40
2023-04-11T01:26:52.255Z,0.90
2023-04-11T01:29:19.544Z,0.77
2023-04-11T01:31:46.423Z,0.93
2023-04-11T01:34:15.759Z,0.70
2023-04-11T01:36:42.793Z,0.73
2023-04-11T01:39:09.865Z,0.77
2023-04-11T01:41:37.294Z,0.93
2023-04-11T01:44:05.094Z,0.88
2023-04-11T01:46:32.899Z,0.45
2023-04-11T01:49:02.845Z,0.85
2023-04-11T01:51:29.494Z,0.70
2023-04-11T01:53:56.111Z,1.20
2023-04-11T01:56:22.736Z,0.68
2023-04-11T01:58:49.457Z,1.20
2023-04-11T02:01:20.265Z,0.77
2023-04-11T02:03:47.058Z,0.93
2023-04-11T02:06:15.689Z,0.80
2023-04-11T02:08:43.240Z,0.70
2023-04-11T02:11:10.692Z,0.50
2023-04-11T02:13:37.506Z,0.95
2023-04-11T02:16:09.192Z,0.60
2023-04-11T02:18:36.407Z,0.40
2023-04-11T02:21:03.313Z,0.60
2023-04-11T02:23:29.993Z,0.52
2023-04-11T02:25:56.583Z,0.45
2023-04-11T02:28:23.122Z,0.45
2023-04-11T02:30:52.913Z,0.55
2023-04-11T02:33:19.864Z,0.73
2023-04-11T02:35:46.994Z,0.50
2023-04-11T02:38:14.260Z,0.63
2023-04-11T02:40:40.968Z,0.60
2023-04-11T02:43:07.584Z,0.63
2023-04-11T02:45:34.287Z,0.50
2023-04-11T02:48:01.442Z,0.50
2023-04-11T02:50:28.368Z,0.77
2023-04-11T02:52:55.506Z,0.65
2023-04-11T02:57:52.481Z,0.60
2023-04-11T03:00:21.361Z,0.55
2023-04-11T03:03:03.169Z,0.43
2023-04-11T03:05:34.427Z,0.70
2023-04-11T03:08:01.100Z,0.65
2023-04-11T03:10:30.528Z,0.75
2023-04-11T03:12:58.381Z,0.55
2023-04-11T03:15:25.168Z,1.02
2023-04-11T03:17:51.830Z,0.80
2023-04-11T03:20:19.916Z,0.75
2023-04-11T03:22:49.822Z,0.70
2023-04-11T03:25:18.079Z,0.73
2023-04-11T03:27:46.943Z,0.52
2023-04-11T03:30:14.620Z,0.75
2023-04-11T03:32:44.098Z,0.90
2023-04-11T03:35:10.781Z,0.63
2023-04-11T03:37:41.064Z,0.85
2023-04-11T03:40:08.529Z,0.80
2023-04-11T03:42:37.512Z,0.93
2023-04-11T03:45:08.259Z,0.65
2023-04-11T03:47:35.887Z,0.70
2023-04-11T03:50:03.951Z,0.70
2023-04-11T03:52:37.667Z,0.68
2023-04-11T03:55:09.776Z,1.23
2023-04-11T03:57:36.401Z,0.50
2023-04-11T04:00:05.885Z,0.70
2023-04-11T04:02:42.115Z,0.98
2023-04-11T04:05:13.240Z,0.70
2023-04-11T04:07:41.967Z,0.60
2023-04-11T04:10:20.558Z,0.93
2023-04-11T04:12:52.892Z,0.70
2023-04-11T04:15:33.886Z,0.60
2023-04-11T04:18:02.224Z,1.20
2023-04-11T04:20:47.368Z,0.98
2023-04-11T04:23:14.286Z,0.93
2023-04-11T04:25:52.462Z,0.90
2023-04-11T04:28:26.077Z,0.80
2023-04-11T04:30:54.454Z,1.17
2023-04-11T04:35:52.516Z,0.88
2023-04-11T04:38:19.588Z,0.90
2023-04-11T04:40:54.775Z,0.57
2023-04-11T04:43:24.378Z,0.63
2023-04-11T04:46:05.258Z,0.60
2023-04-11T04:48:39.530Z,0.80
2023-04-11T04:51:07.037Z,0.95
2023-04-11T04:53:38.977Z,0.77
2023-04-11T04:56:08.324Z,0.73
2023-04-11T04:58:47.195Z,1.27
2023-04-11T05:01:17.010Z,0.77
2023-04-11T05:03:46.826Z,1.13
2023-04-11T05:06:20.898Z,0.90
2023-04-11T05:08:50.230Z,0.73
2023-04-11T05:11:16.812Z,0.90
2023-04-11T05:13:43.419Z,0.93
2023-04-11T05:16:11.013Z,1.35
2023-04-11T05:18:37.665Z,1.40
2023-04-11T05:21:05.294Z,1.33
2023-04-11T05:23:38.013Z,1.13
2023-04-11T05:26:06.916Z,1.05
2023-04-11T05:28:34.862Z,1.33
2023-04-11T05:31:06.911Z,1.10
2023-04-11T05:33:33.959Z,0.95
2023-04-11T05:36:01.754Z,1.63
2023-04-11T05:38:29.187Z,1.20
2023-04-11T05:40:56.669Z,1.27
2023-04-11T05:43:24.224Z,0.70
2023-04-11T05:45:51.095Z,0.85
2023-04-11T05:48:21.469Z,1.00
2023-04-11T05:50:48.090Z,1.48
2023-04-11T05:53:16.231Z,0.90
2023-04-11T05:55:43.381Z,1.40
2023-04-11T05:58:10.438Z,1.00
2023-04-11T06:00:38.330Z,1.10
2023-04-11T06:03:06.840Z,1.20
2023-04-11T06:05:34.880Z,1.13
2023-04-11T06:08:03.221Z,1.00
2023-04-11T06:10:30.754Z,1.20
2023-04-11T06:12:57.992Z,1.27
2023-04-11T06:15:26.670Z,0.65
2023-04-11T06:17:54.051Z,1.10
2023-04-11T06:20:22.721Z,0.77
2023-04-11T06:22:51.454Z,0.93
2023-04-11T06:25:19.833Z,0.82
2023-04-11T06:27:47.260Z,1.42
2023-04-11T06:30:14.611Z,1.02
2023-04-11T06:32:42.738Z,1.00
2023-04-11T06:35:10.273Z,1.25
2023-04-11T06:37:36.890Z,1.30
2023-04-11T06:40:06.857Z,1.30
2023-04-11T06:42:33.874Z,1.55
2023-04-11T06:45:01.016Z,0.90
2023-04-11T06:47:27.693Z,1.88
2023-04-11T06:49:55.547Z,1.98
2023-04-11T06:52:22.449Z,1.48
2023-04-11T06:54:49.262Z,1.00
2023-04-11T06:57:15.967Z,1.23
2023-04-11T06:59:44.120Z,1.15
2023-04-11T07:02:11.040Z,0.85
2023-04-11T07:04:37.943Z,0.95
2023-04-11T07:07:04.794Z,1.25
2023-04-11T07:09:31.903Z,1.08
2023-04-11T07:11:58.700Z,1.10
2023-04-11T07:14:25.484Z,1.10
2023-04-11T07:16:52.102Z,0.98
2023-04-11T07:19:18.781Z,0.95
2023-04-11T07:21:45.422Z,0.60
2023-04-11T07:24:13.241Z,0.70
2023-04-11T07:26:44.596Z,0.50
2023-04-11T07:29:14.634Z,0.60
2023-04-11T07:31:41.783Z,0.50
2023-04-11T07:34:08.611Z,0.75
2023-04-11T07:36:35.725Z,0.95
2023-04-11T07:39:04.301Z,0.52
2023-04-11T07:41:31.331Z,0.70
2023-04-11T07:43:58.272Z,0.60
2023-04-11T07:46:25.302Z,0.43
2023-04-11T07:48:52.067Z,0.60
2023-04-11T07:51:18.850Z,0.70
2023-04-11T07:53:45.639Z,0.70
2023-04-11T07:56:12.270Z,0.63
2023-04-11T07:58:38.884Z,0.63
2023-04-11T08:01:07.029Z,0.77
2023-04-11T08:03:33.773Z,0.40
2023-04-11T08:06:00.738Z,0.50
2023-04-11T08:08:27.321Z,0.95
2023-04-11T08:10:53.944Z,0.40
2023-04-11T08:13:21.968Z,0.65
2023-04-11T08:15:48.593Z,0.22
2023-04-11T08:18:16.491Z,0.35
2023-04-11T08:20:43.204Z,0.30
2023-04-11T08:23:10.988Z,0.28
2023-04-11T08:25:39.107Z,0.63
2023-04-11T08:28:06.113Z,0.60
2023-04-11T08:30:33.255Z,0.40
2023-04-11T08:32:59.916Z,0.28
2023-04-11T08:35:26.725Z,0.50
2023-04-11T08:37:53.794Z,0.35
2023-04-11T08:40:20.629Z,0.20
2023-04-11T08:42:47.263Z,0.25
2023-04-11T08:45:13.899Z,0.20
2023-04-11T08:47:41.884Z,0.30
2023-04-11T08:50:09.996Z,0.30
2023-04-11T08:52:38.035Z,0.40
2023-04-11T08:55:04.900Z,0.20
2023-04-11T08:57:32.957Z,0.50
2023-04-11T09:00:09.090Z,0.25
2023-04-11T09:02:35.926Z,0.25
2023-04-11T09:05:02.688Z,0.30
2023-04-11T09:07:29.344Z,0.75
2023-04-11T09:09:56.710Z,0.10
2023-04-11T09:12:29.780Z,0.00
2023-04-11T09:14:56.461Z,0.15
2023-04-11T09:17:23.145Z,0.10
2023-04-11T09:19:49.831Z,0.32
2023-04-11T09:22:16.423Z,0.13
2023-04-11T09:24:43.126Z,0.43
2023-04-11T09:27:14.297Z,0.40
2023-04-11T09:29:43.388Z,0.43
2023-04-11T09:32:33.577Z,0.10
2023-04-11T09:35:20.791Z,0.35
2023-04-11T09:37:48.765Z,0.17
2023-04-11T09:40:17.491Z,0.15
2023-04-11T09:42:46.705Z,0.13
2023-04-11T09:45:21.413Z,0.20
2023-04-11T09:47:49.988Z,0.40
2023-04-11T09:50:17.222Z,0.25
2023-04-11T09:52:45.361Z,0.40
2023-04-11T09:55:13.796Z,0.45
2023-04-11T09:57:45.745Z,0.30
2023-04-11T10:00:19.429Z,0.20
2023-04-11T10:02:49.360Z,0.20
2023-04-11T10:05:18.164Z,0.20
2023-04-11T10:08:04.642Z,0.52
2023-04-11T10:10:32.053Z,0.20
2023-04-11T10:12:59.879Z,0.40
2023-04-11T10:15:27.071Z,0.20
2023-04-11T10:18:13.597Z,0.20
2023-04-11T10:20:48.685Z,0.30
2023-04-11T10:23:18.014Z,0.10
2023-04-11T10:25:59.896Z,0.40
2023-04-11T10:28:30.513Z,0.10
2023-04-11T10:31:13.417Z,0.20
2023-04-11T10:34:00.896Z,0.45
2023-04-11T10:36:27.625Z,0.40
2023-04-11T10:38:54.751Z,0.30
2023-04-11T10:41:27.698Z,0.20
2023-04-11T10:44:12.614Z,0.20
2023-04-11T10:46:50.831Z,0.32
2023-04-11T10:49:38.303Z,0.10
2023-04-11T10:52:21.796Z,0.20
2023-04-11T10:54:53.272Z,0.20
2023-04-11T10:57:21.584Z,0.30
2023-04-11T10:59:51.329Z,0.10
2023-04-11T11:02:22.048Z,0.20
2023-04-11T11:04:49.354Z,0.10
2023-04-11T11:07:17.316Z,0.10
2023-04-11T11:09:50.401Z,0.05
2023-04-11T11:12:18.382Z,0.05
2023-04-11T11:14:46.839Z,0.00
2023-04-11T11:17:15.247Z,0.00
2023-04-11T11:19:44.904Z,0.00
2023-04-11T11:22:18.578Z,0.00
2023-04-11T11:24:45.293Z,0.03
2023-04-11T11:27:22.698Z,0.10
2023-04-11T11:29:50.258Z,0.40
2023-04-11T11:32:28.022Z,0.00
2023-04-11T11:34:55.354Z,0.17
2023-04-11T11:37:23.181Z,0.10
2023-04-11T11:39:50.301Z,0.10
2023-04-11T11:42:17.599Z,0.20
2023-04-11T11:44:44.223Z,0.00
2023-04-11T11:47:15.352Z,0.00
2023-04-11T11:49:52.935Z,0.00
2023-04-11T11:52:36.423Z,0.13
2023-04-11T11:55:08.733Z,0.10
2023-04-11T11:57:37.507Z,0.00
2023-04-11T12:00:10.280Z,0.05
2023-04-11T12:02:39.067Z,0.10
2023-04-11T12:05:11.105Z,0.10
2023-04-11T12:07:38.415Z,0.10
2023-04-11T12:10:11.753Z,0.00
2023-04-11T12:12:40.865Z,0.10
2023-04-11T12:15:16.118Z,0.00
2023-04-11T12:17:43.556Z,0.00
2023-04-11T12:20:11.210Z,0.10
2023-04-11T12:22:38.302Z,0.10
2023-04-11T12:25:08.985Z,0.00
2023-04-11T12:30:06.317Z,0.00
2023-04-11T12:32:34.148Z,0.15
2023-04-11T12:35:05.424Z,0.10
2023-04-11T12:37:33.285Z,0.10
2023-04-11T12:40:00.546Z,0.10
2023-04-11T12:42:27.651Z,0.08
2023-04-11T12:44:55.879Z,0.00
2023-04-11T12:47:22.526Z,0.00
2023-04-11T12:49:49.249Z,0.13
2023-04-11T12:52:17.120Z,0.40
2023-04-11T12:54:43.767Z,0.30
2023-04-11T12:57:12.361Z,0.05
2023-04-11T12:59:39.464Z,0.13
2023-04-11T13:02:06.226Z,0.32
2023-04-11T13:04:33.193Z,0.20
2023-04-11T13:07:03.470Z,0.10
2023-04-11T13:09:31.571Z,0.10
2023-04-11T13:11:59.441Z,0.10
2023-04-11T13:14:26.185Z,0.30
2023-04-11T13:16:53.304Z,0.05
2023-04-11T13:19:21.475Z,0.40
2023-04-11T13:21:48.146Z,0.35
2023-04-11T13:24:15.144Z,0.20
2023-04-11T13:26:41.980Z,0.40
2023-04-11T13:29:08.687Z,0.10
2023-04-11T13:31:35.325Z,0.10
2023-04-11T13:34:02.217Z,0.22
2023-04-11T13:36:29.207Z,0.10
2023-04-11T13:38:57.642Z,0.35
2023-04-11T13:41:25.006Z,0.20
2023-04-11T13:43:52.529Z,0.17
2023-04-11T13:46:19.529Z,0.10
2023-04-11T13:48:46.208Z,0.05
2023-04-11T13:51:13.220Z,0.13
2023-04-11T13:53:39.980Z,0.00
2023-04-11T13:56:07.798Z,0.10
2023-04-11T13:58:35.114Z,0.08
2023-04-11T14:01:02.088Z,0.00
2023-04-11T14:03:33.216Z,0.10
2023-04-11T14:06:01.566Z,0.00
2023-04-11T14:08:29.347Z,0.15
2023-04-11T14:10:56.108Z,0.10
2023-04-11T14:13:24.333Z,0.10
2023-04-11T14:16:04.996Z,0.10
2023-04-11T14:18:34.517Z,0.20
2023-04-11T14:21:01.819Z,0.10
2023-04-11T14:23:29.752Z,0.13
2023-04-11T14:25:56.822Z,0.15
2023-04-11T14:28:26.427Z,0.22
2023-04-11T14:30:53.421Z,0.68
2023-04-11T14:33:20.180Z,0.25
2023-04-11T14:35:48.020Z,0.50
2023-04-11T14:38:15.655Z,0.32
2023-04-11T14:40:42.875Z,0.30
2023-04-11T14:43:09.595Z,0.40
2023-04-11T14:45:36.491Z,0.30
2023-04-11T14:48:03.404Z,0.10
2023-04-11T14:50:30.169Z,0.05
2023-04-11T14:52:56.814Z,0.00
2023-04-11T14:55:23.465Z,0.28
2023-04-11T14:57:55.494Z,0.10
2023-04-11T15:00:22.772Z,0.00
2023-04-11T15:02:53.008Z,0.00
2023-04-11T15:05:20.685Z,0.00
2023-04-11T15:07:48.775Z,0.00
2023-04-11T15:10:18.338Z,0.00
2023-04-11T15:12:45.101Z,0.00
2023-04-11T15:15:12.994Z,0.00
2023-04-11T15:18:09.301Z,0.00
2023-04-11T15:20:36.387Z,0.00
2023-04-11T15:23:02.919Z,0.30
2023-04-11T15:25:29.544Z,0.10
2023-04-11T15:27:57.037Z,0.00
2023-04-11T15:30:23.662Z,0.00
2023-04-11T15:32:50.219Z,0.55
2023-04-11T15:35:18.000Z,0.10
2023-04-11T15:37:44.670Z,0.40
2023-04-11T15:40:12.290Z,0.20
2023-04-11T15:42:39.248Z,0.25
2023-04-11T15:45:06.721Z,0.00
2023-04-11T15:47:33.661Z,0.10
2023-04-11T15:50:02.877Z,0.10
2023-04-11T15:52:29.502Z,0.00
2023-04-11T15:54:56.737Z,0.40
2023-04-11T15:57:24.844Z,0.22
2023-04-11T15:59:51.421Z,0.10
2023-04-11T16:02:18.136Z,0.10
2023-04-11T16:04:47.919Z,0.10
2023-04-11T16:07:18.426Z,0.10
2023-04-11T16:09:45.367Z,0.30
2023-04-11T16:12:11.997Z,0.10
2023-04-11T16:14:38.708Z,0.28
2023-04-11T16:17:05.571Z,0.10
2023-04-11T16:19:32.210Z,0.10
2023-04-11T16:21:58.929Z,0.30
2023-04-11T16:24:25.863Z,0.80
2023-04-11T16:26:52.474Z,0.95
2023-04-11T16:29:19.099Z,0.30
2023-04-11T16:31:45.745Z,0.10
2023-04-11T16:34:12.520Z,0.30
2023-04-11T16:36:39.214Z,0.20
2023-04-11T16:39:06.428Z,0.40
2023-04-11T16:41:36.359Z,0.03
2023-04-11T16:44:05.972Z,0.10
2023-04-11T16:46:32.797Z,0.00
2023-04-11T16:48:59.366Z,0.00
2023-04-11T16:51:26.233Z,0.13
2023-04-11T16:53:53.354Z,0.10
2023-04-11T16:56:20.197Z,0.00
2023-04-11T16:58:47.926Z,0.03
2023-04-11T17:01:14.958Z,0.10
2023-04-11T17:03:43.163Z,0.10
2023-04-11T17:06:14.881Z,0.00
2023-04-11T17:08:42.261Z,0.32
2023-04-11T17:11:10.447Z,0.08
2023-04-11T17:13:38.330Z,0.10
2023-04-11T17:16:06.401Z,0.10
2023-04-11T17:18:33.101Z,0.00
2023-04-11T17:20:59.981Z,0.32
2023-04-11T17:23:41.342Z,0.10
2023-04-11T17:26:09.499Z,0.10
2023-04-11T17:28:36.284Z,0.00
2023-04-11T17:31:15.317Z,0.00
2023-04-11T17:33:42.375Z,0.10
2023-04-11T17:36:10.838Z,0.10
2023-04-11T17:38:39.523Z,0.20
2023-04-11T17:41:14.353Z,0.13
2023-04-11T17:43:42.458Z,0.20
2023-04-11T17:46:09.691Z,0.08
2023-04-11T17:48:36.702Z,0.20
2023-04-11T17:51:05.372Z,0.10
2023-04-11T17:53:32.578Z,0.10
2023-04-11T17:56:03.329Z,0.20
2023-04-11T17:58:30.308Z,0.20
2023-04-11T18:00:57.349Z,0.15
2023-04-11T18:03:25.977Z,0.47
2023-04-11T18:05:54.374Z,0.10
2023-04-11T18:08:35.502Z,0.20
2023-04-11T18:11:09.983Z,0.10
2023-04-11T18:13:36.586Z,0.20
2023-04-11T18:16:04.244Z,0.10
2023-04-11T18:18:30.967Z,0.08
2023-04-11T18:21:05.051Z,0.10
2023-04-11T18:23:33.860Z,0.10
2023-04-11T18:26:00.712Z,0.28
2023-04-11T18:28:29.321Z,0.20
2023-04-11T18:30:56.565Z,0.40
2023-04-11T18:33:23.222Z,0.28
2023-04-11T18:35:49.999Z,0.13
2023-04-11T18:38:16.685Z,0.25
2023-04-11T18:40:43.417Z,0.20
2023-04-11T18:43:10.111Z,0.00
2023-04-11T18:45:37.074Z,0.17
2023-04-11T18:48:03.948Z,0.08
2023-04-11T18:50:30.972Z,0.10
2023-04-11T18:53:02.207Z,0.28
2023-04-11T18:55:31.802Z,0.00
2023-04-11T18:58:00.384Z,0.35
2023-04-11T19:00:29.549Z,0.40
2023-04-11T19:02:56.488Z,0.10
2023-04-11T19:05:25.558Z,0.08
2023-04-11T19:07:54.290Z,0.10
2023-04-11T19:10:21.312Z,0.30
2023-04-11T19:12:47.992Z,0.20
2023-04-11T19:15:14.721Z,0.10
2023-04-11T19:17:42.260Z,0.38
2023-04-11T19:20:16.413Z,0.30
2023-04-11T19:22:43.260Z,0.20
2023-04-11T19:25:11.515Z,0.20
2023-04-11T19:27:40.526Z,0.20
2023-04-11T19:30:08.788Z,0.10
2023-04-11T19:32:38.540Z,0.10
2023-04-11T19:35:10.107Z,0.10
2023-04-11T19:37:37.170Z,0.10
2023-04-11T19:40:07.743Z,0.10
2023-04-11T19:45:05.021Z,0.13
2023-04-11T19:47:32.293Z,0.10
2023-04-11T19:50:01.208Z,0.30
2023-04-11T19:52:28.693Z,0.20
2023-04-11T19:54:56.608Z,0.00
2023-04-11T19:57:26.429Z,0.10
2023-04-11T19:59:53.263Z,0.10
2023-04-11T20:02:20.447Z,0.10
2023-04-11T20:04:48.139Z,0.10
2023-04-11T20:07:15.379Z,0.10
2023-04-11T20:09:42.027Z,0.10
2023-04-11T20:12:08.728Z,0.40
2023-04-11T20:14:35.619Z,0.15
2023-04-11T20:17:02.365Z,0.32
2023-04-11T20:19:29.813Z,0.20
2023-04-11T20:21:56.563Z,0.40
2023-04-11T20:24:23.951Z,0.32
2023-04-11T20:26:51.182Z,0.20
2023-04-11T20:29:18.137Z,0.30
2023-04-11T20:31:44.954Z,0.30
2023-04-11T20:34:11.698Z,0.40
2023-04-11T20:36:38.599Z,0.20
2023-04-11T20:39:05.320Z,0.28
2023-04-11T20:41:33.122Z,0.20
2023-04-11T20:43:59.855Z,0.20
2023-04-11T20:46:29.812Z,0.40
2023-04-11T20:48:57.313Z,0.20
2023-04-11T20:51:24.954Z,0.28
2023-04-11T20:53:51.676Z,0.28
2023-04-11T20:56:18.430Z,0.20
2023-04-11T20:58:46.392Z,0.45
2023-04-11T21:01:13.520Z,0.30
2023-04-11T21:03:43.828Z,0.20
2023-04-11T21:06:10.892Z,0.20
2023-04-11T21:08:37.753Z,0.43
2023-04-11T21:11:05.578Z,0.50
2023-04-11T21:13:32.276Z,0.40
2023-04-11T21:15:58.881Z,0.20
2023-04-11T21:18:25.534Z,0.20
2023-04-11T21:20:52.191Z,0.20
2023-04-11T21:23:18.795Z,0.20
2023-04-11T21:25:45.422Z,0.32
2023-04-11T21:28:12.042Z,0.32
2023-04-11T21:30:39.472Z,0.30
2023-04-11T21:33:06.164Z,0.13
2023-04-11T21:35:32.935Z,0.47
2023-04-11T21:37:59.574Z,0.30
2023-04-11T21:40:26.268Z,0.20
2023-04-11T21:42:53.248Z,0.25
2023-04-11T21:45:19.872Z,0.30
2023-04-11T21:47:46.814Z,0.60
2023-04-11T21:50:13.749Z,0.30
2023-04-11T21:52:40.434Z,0.35
2023-04-11T21:55:09.069Z,0.47
2023-04-11T21:57:36.044Z,0.50
2023-04-11T22:00:04.309Z,0.30
2023-04-11T22:02:38.866Z,0.50
2023-04-11T22:05:08.725Z,0.22
2023-04-11T22:07:46.154Z,0.30
2023-04-11T22:10:14.079Z,0.38
2023-04-11T22:12:42.415Z,0.30
2023-04-11T22:15:11.069Z,0.28
2023-04-11T22:17:38.292Z,0.35
2023-04-11T22:20:06.731Z,0.30
2023-04-11T22:22:33.494Z,0.30
2023-04-11T22:25:00.290Z,0.40
2023-04-11T22:27:27.300Z,0.47
2023-04-11T22:29:57.171Z,0.40
2023-04-11T22:32:24.081Z,0.20
2023-04-11T22:34:51.079Z,0.30
2023-04-11T22:37:17.707Z,0.30
2023-04-11T22:39:44.317Z,0.50
2023-04-11T22:42:11.607Z,0.20
2023-04-11T22:44:38.416Z,0.22
2023-04-11T22:47:08.896Z,0.38
2023-04-11T22:49:41.752Z,0.68
2023-04-11T22:52:10.732Z,0.20
2023-04-11T22:54:38.515Z,0.52
2023-04-11T22:57:05.100Z,0.85
2023-04-11T22:59:32.216Z,0.60
2023-04-11T23:01:59.045Z,1.38
2023-04-11T23:04:25.662Z,2.35
2023-04-11T23:06:53.619Z,1.95
2023-04-11T23:09:20.840Z,1.35
2023-04-11T23:11:48.770Z,1.40
2023-04-11T23:14:18.264Z,1.25
2023-04-11T23:16:45.285Z,0.82
2023-04-11T23:19:12.100Z,0.73
2023-04-11T23:21:38.769Z,0.52
2023-04-11T23:24:06.927Z,0.40
2023-04-11T23:26:33.811Z,0.60
2023-04-11T23:29:02.218Z,0.35
2023-04-11T23:31:29.694Z,0.32
2023-04-11T23:33:56.826Z,0.45
2023-04-11T23:36:23.774Z,0.75
2023-04-11T23:38:50.323Z,0.40
2023-04-11T23:41:16.983Z,0.55
2023-04-11T23:43:43.553Z,0.22
2023-04-11T23:46:10.269Z,0.30
2023-04-11T23:48:37.095Z,0.40
2023-04-11T23:51:03.897Z,0.15
2023-04-11T23:53:31.671Z,0.32
2023-04-11T23:55:58.387Z,0.30
2023-04-11T23:58:24.953Z,0.20
